Time;durP1;ratioP1;P1;durP2;ratioP2;P2;SDS_P1;SDS_P2;PMS_P1;PMS_P2;Temp;Humidity;BMP_temperature;BMP_pressure;BME280_temperature;BME280_humidity;BME280_pressure;Samples;Min_cycle;Max_cycle;Signal;HPM_P1;HPM_P2
2022/09/08 00:01:13;;;;;;;1.83;1.08;;;;;;;;;;5134766;27;20019;-44
2022/09/08 00:03:38;;;;;;;1.77;0.82;;;;;;;;;;5133238;27;20022;-44
2022/09/08 00:06:05;;;;;;;1.50;1.00;;;;;;;;;;5132680;27;20100;-43
2022/09/08 00:08:30;;;;;;;5.70;2.08;;;;;;;;;;5119240;27;20022;-45
2022/09/08 00:10:57;;;;;;;8.68;1.10;;;;;;;;;;5133244;27;20477;-46
2022/09/08 00:13:23;;;;;;;2.60;1.50;;;;;;;;;;5138517;27;20059;-45
2022/09/08 00:15:49;;;;;;;10.27;1.52;;;;;;;;;;5136765;27;20499;-45
2022/09/08 00:18:15;;;;;;;6.05;1.38;;;;;;;;;;5138696;27;20037;-45
2022/09/08 00:20:40;;;;;;;3.15;1.75;;;;;;;;;;5138798;27;20469;-45
2022/09/08 00:23:05;;;;;;;8.35;1.02;;;;;;;;;;5134043;27;20127;-48
2022/09/08 00:25:31;;;;;;;2.72;0.85;;;;;;;;;;5133009;27;20053;-47
2022/09/08 00:27:56;;;;;;;1.52;1.02;;;;;;;;;;5130917;27;20038;-47
2022/09/08 00:30:21;;;;;;;7.65;2.10;;;;;;;;;;5131726;27;20026;-45
2022/09/08 00:32:47;;;;;;;3.80;1.25;;;;;;;;;;5132380;27;20019;-45
2022/09/08 00:35:18;;;;;;;3.28;2.08;;;;;;;;;;5133485;27;20520;-47
2022/09/08 00:37:44;;;;;;;1.60;1.15;;;;;;;;;;5135769;27;20565;-45
2022/09/08 00:40:10;;;;;;;3.95;2.20;;;;;;;;;;5131999;27;20031;-43
2022/09/08 00:42:35;;;;;;;10.07;3.00;;;;;;;;;;5131060;27;20105;-46
2022/09/08 00:45:01;;;;;;;4.10;1.65;;;;;;;;;;5134730;27;20023;-47
2022/09/08 00:47:26;;;;;;;4.32;1.50;;;;;;;;;;5134492;27;20024;-48
2022/09/08 00:49:56;;;;;;;6.47;2.17;;;;;;;;;;5131856;27;20076;-47
2022/09/08 00:52:22;;;;;;;9.25;2.00;;;;;;;;;;5134125;27;20015;-47
2022/09/08 00:54:48;;;;;;;5.97;1.92;;;;;;;;;;5131373;27;20056;-45
2022/09/08 00:57:14;;;;;;;8.55;1.65;;;;;;;;;;5131479;27;20055;-44
2022/09/08 00:59:39;;;;;;;1.42;1.02;;;;;;;;;;5130704;27;20038;-46
2022/09/08 01:02:19;;;;;;;6.93;2.40;;;;;;;;;;5133286;27;20053;-49
2022/09/08 01:04:44;;;;;;;8.03;1.30;;;;;;;;;;5131683;27;20238;-45
2022/09/08 01:12:49;;;;;;;1.85;0.75;;;;;;;;;;5132134;27;20026;-46
2022/09/08 01:15:19;;;;;;;4.05;2.05;;;;;;;;;;5135267;27;20015;-45
2022/09/08 01:17:47;;;;;;;4.10;1.25;;;;;;;;;;5132390;27;20025;-46
2022/09/08 01:20:12;;;;;;;12.88;1.42;;;;;;;;;;5132166;27;20018;-47
2022/09/08 01:22:47;;;;;;;6.07;1.40;;;;;;;;;;5135526;27;20030;-45
2022/09/08 01:25:18;;;;;;;2.55;1.75;;;;;;;;;;5130265;27;20019;-46
2022/09/08 01:27:47;;;;;;;5.32;1.48;;;;;;;;;;5127333;27;20380;-47
2022/09/08 01:30:12;;;;;;;4.63;1.92;;;;;;;;;;5132104;27;20011;-45
2022/09/08 01:32:39;;;;;;;4.63;1.50;;;;;;;;;;5134825;27;20525;-49
2022/09/08 01:35:11;;;;;;;2.88;1.42;;;;;;;;;;5133764;27;20101;-51
2022/09/08 01:37:36;;;;;;;5.25;2.63;;;;;;;;;;5133750;27;20022;-52
2022/09/08 01:40:03;;;;;;;1.98;1.10;;;;;;;;;;5131574;27;20015;-47
2022/09/08 01:42:28;;;;;;;3.80;1.65;;;;;;;;;;5127104;27;20019;-48
2022/09/08 01:44:54;;;;;;;2.60;1.17;;;;;;;;;;5129364;27;20042;-46
2022/09/08 01:47:19;;;;;;;1.85;1.00;;;;;;;;;;5133222;27;20113;-43
2022/09/08 01:49:44;;;;;;;10.88;1.02;;;;;;;;;;5132053;27;20019;-45
2022/09/08 01:52:09;;;;;;;3.45;1.75;;;;;;;;;;5132060;27;20093;-45
2022/09/08 01:54:35;;;;;;;5.05;1.45;;;;;;;;;;5136083;27;20012;-45
2022/09/08 01:57:01;;;;;;;3.53;2.00;;;;;;;;;;5132857;27;20528;-45
2022/09/08 01:59:26;;;;;;;2.58;1.48;;;;;;;;;;5132502;27;20091;-48
2022/09/08 02:01:51;;;;;;;9.30;1.83;;;;;;;;;;5133375;27;20022;-48
2022/09/08 02:04:17;;;;;;;5.45;1.10;;;;;;;;;;5133583;27;20042;-47
2022/09/08 02:06:42;;;;;;;2.78;0.73;;;;;;;;;;5114431;27;20432;-46
2022/09/08 02:09:07;;;;;;;6.90;2.00;;;;;;;;;;5132608;27;20095;-46
2022/09/08 02:11:32;;;;;;;6.10;1.30;;;;;;;;;;5133160;27;20445;-45
2022/09/08 02:13:58;;;;;;;3.65;1.70;;;;;;;;;;5130984;27;20023;-48
2022/09/08 02:16:24;;;;;;;1.98;1.05;;;;;;;;;;5131771;27;20438;-44
2022/09/08 02:18:50;;;;;;;2.03;1.00;;;;;;;;;;5129660;27;20053;-45
2022/09/08 02:21:17;;;;;;;3.00;1.20;;;;;;;;;;5137590;27;20134;-44
2022/09/08 02:23:44;;;;;;;9.85;1.52;;;;;;;;;;5131370;27;20045;-46
2022/09/08 02:26:28;;;;;;;2.10;1.27;;;;;;;;;;5135105;27;20019;-45
2022/09/08 02:28:54;;;;;;;5.57;1.92;;;;;;;;;;5134234;27;20035;-45
2022/09/08 02:31:20;;;;;;;5.53;1.55;;;;;;;;;;5136609;27;20019;-45
2022/09/08 02:33:46;;;;;;;3.03;1.13;;;;;;;;;;5137437;27;20011;-46
2022/09/08 02:36:11;;;;;;;2.33;1.77;;;;;;;;;;5135063;27;20506;-46
2022/09/08 02:38:37;;;;;;;5.50;2.08;;;;;;;;;;5138732;27;20098;-46
2022/09/08 02:41:02;;;;;;;4.63;1.70;;;;;;;;;;5136499;27;20027;-45
2022/09/08 02:43:29;;;;;;;7.10;1.17;;;;;;;;;;5139806;27;20021;-44
2022/09/08 02:45:54;;;;;;;2.67;1.42;;;;;;;;;;5133957;27;20023;-45
2022/09/08 02:48:19;;;;;;;4.18;1.67;;;;;;;;;;5138793;27;20029;-47
2022/09/08 02:50:44;;;;;;;6.05;1.70;;;;;;;;;;5134399;27;20378;-47
2022/09/08 02:53:10;;;;;;;9.63;1.75;;;;;;;;;;5140459;27;20480;-45
2022/09/08 02:55:36;;;;;;;4.57;1.02;;;;;;;;;;5139108;27;20043;-49
2022/09/08 02:58:02;;;;;;;3.80;1.73;;;;;;;;;;5137233;27;20504;-47
2022/09/08 03:00:32;;;;;;;4.03;1.60;;;;;;;;;;5136948;27;20069;-44
2022/09/08 03:02:57;;;;;;;6.93;1.93;;;;;;;;;;5135832;27;20023;-44
2022/09/08 03:05:22;;;;;;;1.70;1.08;;;;;;;;;;5137385;27;20021;-45
2022/09/08 03:07:48;;;;;;;1.13;0.82;;;;;;;;;;5139838;27;20041;-45
2022/09/08 03:10:14;;;;;;;3.83;1.10;;;;;;;;;;5137679;27;20483;-46
2022/09/08 03:12:40;;;;;;;1.90;1.10;;;;;;;;;;5137609;27;20048;-47
2022/09/08 03:15:06;;;;;;;2.72;0.90;;;;;;;;;;5133174;27;20034;-47
2022/09/08 03:17:31;;;;;;;0.95;0.50;;;;;;;;;;5131095;27;20507;-45
2022/09/08 03:19:56;;;;;;;5.90;1.10;;;;;;;;;;5136836;27;20094;-46
2022/09/08 03:22:22;;;;;;;1.63;1.23;;;;;;;;;;5136585;27;20087;-44
2022/09/08 03:24:47;;;;;;;1.88;1.48;;;;;;;;;;5134174;27;20030;-46
2022/09/08 03:27:12;;;;;;;1.90;1.05;;;;;;;;;;5136642;27;20537;-52
2022/09/08 03:29:38;;;;;;;3.63;1.95;;;;;;;;;;5133641;27;20023;-46
2022/09/08 03:32:03;;;;;;;7.00;2.00;;;;;;;;;;5137777;27;20031;-49
2022/09/08 03:34:29;;;;;;;5.38;0.98;;;;;;;;;;5136652;27;20057;-47
2022/09/08 03:36:54;;;;;;;5.15;1.60;;;;;;;;;;5136723;27;20030;-47
2022/09/08 03:39:20;;;;;;;1.63;1.25;;;;;;;;;;5140571;27;20019;-50
2022/09/08 03:41:45;;;;;;;1.17;0.90;;;;;;;;;;5134358;27;20873;-50
2022/09/08 03:44:10;;;;;;;3.95;1.42;;;;;;;;;;5134661;27;20031;-50
2022/09/08 03:46:36;;;;;;;6.82;0.85;;;;;;;;;;5136093;27;20034;-45
2022/09/08 03:49:01;;;;;;;4.30;1.42;;;;;;;;;;5134708;27;20248;-50
2022/09/08 03:51:27;;;;;;;2.45;1.58;;;;;;;;;;5137203;27;20500;-47
2022/09/08 03:53:53;;;;;;;4.50;1.63;;;;;;;;;;5131501;27;20042;-51
2022/09/08 03:56:19;;;;;;;2.70;1.38;;;;;;;;;;5130855;27;20041;-51
2022/09/08 03:58:44;;;;;;;6.97;0.98;;;;;;;;;;5134831;27;20019;-49
2022/09/08 04:01:17;;;;;;;2.15;1.27;;;;;;;;;;5135549;27;20091;-52
2022/09/08 04:03:43;;;;;;;4.18;2.10;;;;;;;;;;5132888;27;20439;-45
2022/09/08 04:06:09;;;;;;;2.38;1.20;;;;;;;;;;5134029;27;20453;-45
2022/09/08 04:08:35;;;;;;;1.45;1.15;;;;;;;;;;5134328;27;20035;-49
2022/09/08 04:11:00;;;;;;;4.18;1.02;;;;;;;;;;5131488;27;20643;-47
2022/09/08 04:13:26;;;;;;;5.38;3.65;;;;;;;;;;5136392;27;20025;-50
2022/09/08 04:15:52;;;;;;;2.65;1.05;;;;;;;;;;5136789;27;20022;-48
2022/09/08 04:18:17;;;;;;;1.13;0.73;;;;;;;;;;5131125;27;20551;-52
2022/09/08 04:20:42;;;;;;;8.07;1.23;;;;;;;;;;5133340;27;20035;-44
2022/09/08 04:23:08;;;;;;;1.27;1.05;;;;;;;;;;5134193;27;20041;-48
2022/09/08 04:25:33;;;;;;;1.90;0.80;;;;;;;;;;5136696;27;20527;-48
2022/09/08 04:27:58;;;;;;;3.33;1.80;;;;;;;;;;5136673;27;20061;-48
2022/09/08 04:30:24;;;;;;;4.55;1.80;;;;;;;;;;5134817;27;20674;-51
2022/09/08 04:32:49;;;;;;;5.78;3.38;;;;;;;;;;5135050;27;20019;-49
2022/09/08 04:35:14;;;;;;;4.18;1.75;;;;;;;;;;5134997;27;20026;-49
2022/09/08 04:37:40;;;;;;;6.07;1.85;;;;;;;;;;5132832;27;20019;-50
2022/09/08 04:40:07;;;;;;;3.78;1.38;;;;;;;;;;5133066;27;20026;-49
2022/09/08 04:42:33;;;;;;;2.65;1.50;;;;;;;;;;5127798;27;20022;-48
2022/09/08 04:44:58;;;;;;;4.10;1.55;;;;;;;;;;5130237;27;20487;-47
2022/09/08 04:47:24;;;;;;;3.10;1.60;;;;;;;;;;5128730;27;20496;-50
2022/09/08 04:49:49;;;;;;;8.00;1.88;;;;;;;;;;5132198;27;20019;-50
2022/09/08 04:52:14;;;;;;;3.63;2.58;;;;;;;;;;5133617;27;20015;-50
2022/09/08 04:54:41;;;;;;;14.25;4.75;;;;;;;;;;5132589;27;20103;-47
2022/09/08 04:57:06;;;;;;;5.18;2.80;;;;;;;;;;5134256;27;20050;-48
2022/09/08 04:59:31;;;;;;;2.03;1.55;;;;;;;;;;5133565;27;20042;-48
2022/09/08 05:01:56;;;;;;;2.42;1.25;;;;;;;;;;5133231;27;20489;-44
2022/09/08 05:04:22;;;;;;;3.75;1.90;;;;;;;;;;5133820;27;20039;-50
2022/09/08 05:06:47;;;;;;;4.70;2.08;;;;;;;;;;5129038;27;20061;-48
2022/09/08 05:09:13;;;;;;;4.90;2.45;;;;;;;;;;5131832;27;20035;-48
2022/09/08 05:11:38;;;;;;;5.43;1.77;;;;;;;;;;5133338;27;20027;-51
2022/09/08 05:14:04;;;;;;;4.75;0.93;;;;;;;;;;5115192;27;20437;-49
2022/09/08 05:16:30;;;;;;;11.32;1.98;;;;;;;;;;5132368;27;20011;-47
2022/09/08 05:18:56;;;;;;;5.55;1.30;;;;;;;;;;5130931;27;20027;-48
2022/09/08 05:21:23;;;;;;;4.53;1.33;;;;;;;;;;5133642;27;20489;-48
2022/09/08 05:23:52;;;;;;;2.38;1.70;;;;;;;;;;5132142;27;20031;-50
2022/09/08 05:26:18;;;;;;;1.63;0.98;;;;;;;;;;5131537;27;20654;-45
2022/09/08 05:28:44;;;;;;;1.65;1.33;;;;;;;;;;5129970;27;20023;-47
2022/09/08 05:31:11;;;;;;;6.72;2.90;;;;;;;;;;5136815;27;20214;-47
2022/09/08 05:33:37;;;;;;;3.53;1.75;;;;;;;;;;5133492;27;20031;-46
2022/09/08 05:36:07;;;;;;;13.98;3.33;;;;;;;;;;5132424;27;20415;-44
2022/09/08 05:38:34;;;;;;;9.05;3.13;;;;;;;;;;5135427;27;20111;-45
2022/09/08 05:41:00;;;;;;;3.63;2.33;;;;;;;;;;5131836;27;20037;-46
2022/09/08 05:43:25;;;;;;;1.95;1.40;;;;;;;;;;5128766;27;20027;-46
2022/09/08 05:45:50;;;;;;;1.90;1.35;;;;;;;;;;5129464;27;20029;-46
2022/09/08 05:48:16;;;;;;;4.35;1.10;;;;;;;;;;5127942;27;20109;-48
2022/09/08 05:50:42;;;;;;;4.88;2.38;;;;;;;;;;5133003;27;20578;-48
2022/09/08 05:53:07;;;;;;;1.02;0.75;;;;;;;;;;5131454;27;20441;-50
2022/09/08 05:55:32;;;;;;;1.88;1.35;;;;;;;;;;5135974;27;20031;-46
2022/09/08 05:57:57;;;;;;;11.48;1.70;;;;;;;;;;5131962;27;20372;-47
2022/09/08 06:00:23;;;;;;;7.38;2.72;;;;;;;;;;5129707;27;20015;-43
2022/09/08 06:02:49;;;;;;;7.38;2.92;;;;;;;;;;5134416;27;20023;-49
2022/09/08 06:05:15;;;;;;;15.98;2.08;;;;;;;;;;5131648;27;20038;-46
2022/09/08 06:07:40;;;;;;;12.00;1.83;;;;;;;;;;5132087;27;20023;-43
2022/09/08 06:10:06;;;;;;;12.90;1.98;;;;;;;;;;5130647;27;20102;-44
2022/09/08 06:12:31;;;;;;;5.63;2.22;;;;;;;;;;5136377;27;20038;-47
2022/09/08 06:14:56;;;;;;;4.47;1.90;;;;;;;;;;5129080;27;20392;-47
2022/09/08 06:17:21;;;;;;;5.35;2.15;;;;;;;;;;5133821;27;20019;-45
2022/09/08 06:19:47;;;;;;;23.58;4.78;;;;;;;;;;5130489;27;20112;-47
2022/09/08 06:22:12;;;;;;;5.28;2.45;;;;;;;;;;5134824;27;20018;-46
2022/09/08 06:24:37;;;;;;;6.47;2.47;;;;;;;;;;5136464;27;20020;-49
2022/09/08 06:27:08;;;;;;;10.55;3.55;;;;;;;;;;5134012;27;20541;-44
2022/09/08 06:29:53;;;;;;;3.72;3.00;;;;;;;;;;5135666;27;20022;-46
2022/09/08 06:32:25;;;;;;;11.43;8.55;;;;;;;;;;5121463;27;20474;-43
2022/09/08 06:35:16;;;;;;;7.32;5.88;;;;;;;;;;5132233;27;20505;-48
2022/09/08 06:38:03;;;;;;;9.13;5.63;;;;;;;;;;5131918;27;20039;-46
2022/09/08 06:40:33;;;;;;;11.73;8.93;;;;;;;;;;5130412;27;20474;-46
2022/09/08 06:42:58;;;;;;;14.88;12.55;;;;;;;;;;5130782;27;20035;-45
2022/09/08 06:45:26;;;;;;;50.60;42.63;;;;;;;;;;5134694;27;20027;-46
2022/09/08 06:48:04;;;;;;;46.78;35.88;;;;;;;;;;5130647;27;20007;-46
2022/09/08 06:50:33;;;;;;;24.60;22.25;;;;;;;;;;5132679;27;20089;-49
2022/09/08 06:52:59;;;;;;;26.02;23.15;;;;;;;;;;5131111;27;20103;-44
2022/09/08 06:55:24;;;;;;;30.98;23.38;;;;;;;;;;5128912;27;20108;-44
2022/09/08 06:58:11;;;;;;;18.50;16.80;;;;;;;;;;5133587;27;20470;-46
2022/09/08 07:00:44;;;;;;;9.23;5.13;;;;;;;;;;5128137;27;20059;-47
2022/09/08 07:03:15;;;;;;;21.13;10.65;;;;;;;;;;5132696;27;20023;-44
2022/09/08 07:05:41;;;;;;;16.30;9.05;;;;;;;;;;5137627;27;20023;-49
2022/09/08 07:08:06;;;;;;;10.65;4.82;;;;;;;;;;5134869;27;20504;-48
2022/09/08 07:10:50;;;;;;;8.20;5.15;;;;;;;;;;5134550;27;20076;-44
2022/09/08 07:13:15;;;;;;;10.98;9.90;;;;;;;;;;5136275;27;20022;-46
2022/09/08 07:15:47;;;;;;;22.83;11.65;;;;;;;;;;5134117;27;20475;-49
2022/09/08 07:18:20;;;;;;;9.60;7.55;;;;;;;;;;5138273;27;20478;-45
2022/09/08 07:20:46;;;;;;;17.08;6.78;;;;;;;;;;5139355;27;20022;-47
2022/09/08 07:23:22;;;;;;;13.25;7.18;;;;;;;;;;5138377;27;20419;-45
2022/09/08 07:25:48;;;;;;;24.38;6.97;;;;;;;;;;5134734;27;20019;-43
2022/09/08 07:28:23;;;;;;;6.95;5.80;;;;;;;;;;5134087;27;20057;-46
2022/09/08 07:31:02;;;;;;;22.75;7.72;;;;;;;;;;5134555;27;20015;-46
2022/09/08 07:33:34;;;;;;;14.25;5.93;;;;;;;;;;5127887;27;20015;-43
2022/09/08 07:36:11;;;;;;;6.40;5.72;;;;;;;;;;5138949;27;20307;-45
2022/09/08 07:38:43;;;;;;;15.50;5.95;;;;;;;;;;5134313;27;20047;-46
2022/09/08 07:41:09;;;;;;;6.38;5.47;;;;;;;;;;5133452;27;20058;-45
2022/09/08 07:43:34;;;;;;;16.88;6.00;;;;;;;;;;5136744;27;20034;-44
2022/09/08 07:45:59;;;;;;;8.05;5.78;;;;;;;;;;5135487;27;20549;-42
2022/09/08 07:48:33;;;;;;;10.10;4.95;;;;;;;;;;5135358;27;20537;-44
2022/09/08 07:51:10;;;;;;;7.97;4.32;;;;;;;;;;5133036;27;20030;-46
2022/09/08 07:53:48;;;;;;;6.40;3.97;;;;;;;;;;5137814;27;20092;-43
2022/09/08 07:56:24;;;;;;;5.97;4.78;;;;;;;;;;5139793;27;20669;-52
2022/09/08 07:58:56;;;;;;;4.40;3.80;;;;;;;;;;5132668;27;20034;-49
2022/09/08 08:01:33;;;;;;;10.60;4.93;;;;;;;;;;5134459;27;20097;-47
2022/09/08 08:04:11;;;;;;;5.63;4.07;;;;;;;;;;5129804;27;20030;-48
2022/09/08 08:06:45;;;;;;;6.95;3.80;;;;;;;;;;5125899;27;20019;-45
2022/09/08 08:09:10;;;;;;;9.25;4.28;;;;;;;;;;5131279;27;20023;-49
2022/09/08 08:11:47;;;;;;;4.95;3.42;;;;;;;;;;5132964;27;20122;-46
2022/09/08 08:14:25;;;;;;;2.65;2.03;;;;;;;;;;5136739;27;20038;-45
2022/09/08 08:16:56;;;;;;;7.38;3.20;;;;;;;;;;5132927;27;20462;-44
2022/09/08 08:19:31;;;;;;;3.55;2.67;;;;;;;;;;5133858;27;20506;-49
2022/09/08 08:22:10;;;;;;;3.00;2.30;;;;;;;;;;5132521;27;20024;-47
2022/09/08 08:24:51;;;;;;;7.68;2.45;;;;;;;;;;5136993;27;20041;-46
2022/09/08 08:27:35;;;;;;;3.72;2.17;;;;;;;;;;5136743;27;20084;-51
2022/09/08 08:30:15;;;;;;;7.32;3.45;;;;;;;;;;5134586;27;20533;-46
2022/09/08 08:32:43;;;;;;;6.18;2.30;;;;;;;;;;5133237;27;20162;-49
2022/09/08 08:35:20;;;;;;;3.40;2.80;;;;;;;;;;5136329;27;20573;-47
2022/09/08 08:37:47;;;;;;;6.25;3.92;;;;;;;;;;5134899;27;20027;-52
2022/09/08 08:40:32;;;;;;;4.80;2.95;;;;;;;;;;5132972;27;20027;-48
2022/09/08 08:42:58;;;;;;;9.40;3.45;;;;;;;;;;5116371;27;20076;-48
2022/09/08 08:45:43;;;;;;;4.47;3.13;;;;;;;;;;5130974;27;20378;-49
2022/09/08 08:48:20;;;;;;;8.20;3.13;;;;;;;;;;5134954;27;20046;-52
2022/09/08 08:51:04;;;;;;;5.55;2.30;;;;;;;;;;5132366;27;20015;-48
2022/09/08 08:53:41;;;;;;;9.95;3.13;;;;;;;;;;5131835;27;20011;-46
2022/09/08 08:56:17;;;;;;;6.40;1.88;;;;;;;;;;5131474;27;20741;-44
2022/09/08 08:58:48;;;;;;;3.42;2.15;;;;;;;;;;5132732;27;20015;-49
2022/09/08 09:01:23;;;;;;;3.75;2.67;;;;;;;;;;5131597;27;20011;-46
2022/09/08 09:04:07;;;;;;;10.13;3.38;;;;;;;;;;5131003;27;20023;-47
2022/09/08 09:06:36;;;;;;;2.78;1.88;;;;;;;;;;5133224;27;20019;-47
2022/09/08 09:09:11;;;;;;;6.80;1.73;;;;;;;;;;5133202;27;20047;-46
2022/09/08 09:11:39;;;;;;;2.13;1.88;;;;;;;;;;5131968;27;20103;-48
2022/09/08 09:14:04;;;;;;;4.32;2.30;;;;;;;;;;5133278;27;20027;-49
2022/09/08 09:16:52;;;;;;;8.45;3.35;;;;;;;;;;5134093;27;20359;-50
2022/09/08 09:19:30;;;;;;;3.03;2.35;;;;;;;;;;5120854;27;20114;-50
2022/09/08 09:22:14;;;;;;;5.35;2.65;;;;;;;;;;5130313;27;20131;-46
2022/09/08 09:24:45;;;;;;;10.30;4.13;;;;;;;;;;5132253;27;20011;-46
2022/09/08 09:27:16;;;;;;;3.47;1.98;;;;;;;;;;5132747;27;20085;-45
2022/09/08 09:29:42;;;;;;;1.48;1.15;;;;;;;;;;5136040;27;20027;-46
2022/09/08 09:32:16;;;;;;;3.75;2.63;;;;;;;;;;5133199;27;20485;-47
2022/09/08 09:34:54;;;;;;;5.00;2.33;;;;;;;;;;5133390;27;20039;-48
2022/09/08 09:37:22;;;;;;;3.67;2.22;;;;;;;;;;5135103;27;20015;-44
2022/09/08 09:39:54;;;;;;;3.92;1.80;;;;;;;;;;5133899;27;20023;-45
2022/09/08 09:42:38;;;;;;;5.18;2.28;;;;;;;;;;5130047;27;20034;-44
2022/09/08 09:45:22;;;;;;;4.97;1.92;;;;;;;;;;5130485;27;20023;-43
2022/09/08 09:47:53;;;;;;;4.75;2.50;;;;;;;;;;5136416;27;20071;-47
2022/09/08 09:50:25;;;;;;;2.55;1.85;;;;;;;;;;5135212;27;20014;-49
2022/09/08 09:52:56;;;;;;;3.80;2.20;;;;;;;;;;5127792;27;20015;-49
2022/09/08 09:55:21;;;;;;;3.35;1.73;;;;;;;;;;5128396;27;20047;-49
2022/09/08 09:57:49;;;;;;;2.47;1.85;;;;;;;;;;5136394;27;20019;-46
2022/09/08 10:00:18;;;;;;;3.08;1.77;;;;;;;;;;5134923;27;20030;-46
2022/09/08 10:03:02;;;;;;;2.95;1.63;;;;;;;;;;5131914;27;20023;-46
2022/09/08 10:05:30;;;;;;;2.80;1.60;;;;;;;;;;5128982;27;20071;-47
2022/09/08 10:07:55;;;;;;;3.33;1.63;;;;;;;;;;5133405;27;20389;-47
2022/09/08 10:10:27;;;;;;;5.88;1.75;;;;;;;;;;5133598;27;20011;-44
2022/09/08 10:12:53;;;;;;;4.13;2.30;;;;;;;;;;5134740;27;20031;-44
2022/09/08 10:15:25;;;;;;;7.28;2.65;;;;;;;;;;5132586;27;20019;-46
2022/09/08 10:17:59;;;;;;;13.40;2.30;;;;;;;;;;5132258;27;20030;-46
2022/09/08 10:20:44;;;;;;;6.90;2.05;;;;;;;;;;5130699;27;20057;-48
2022/09/08 10:23:30;;;;;;;4.35;2.30;;;;;;;;;;5129382;27;20023;-48
2022/09/08 10:26:14;;;;;;;3.95;1.38;;;;;;;;;;5128059;27;20110;-46
2022/09/08 10:28:59;;;;;;;3.17;1.40;;;;;;;;;;5134988;27;20042;-45
2022/09/08 10:31:43;;;;;;;4.75;1.60;;;;;;;;;;5130528;27;20023;-49
2022/09/08 10:34:23;;;;;;;2.00;1.38;;;;;;;;;;5134619;27;20092;-47
2022/09/08 10:36:51;;;;;;;1.90;1.13;;;;;;;;;;5133677;27;20031;-44
2022/09/08 10:39:19;;;;;;;3.05;1.58;;;;;;;;;;5138843;27;20027;-46
2022/09/08 10:42:03;;;;;;;6.25;1.92;;;;;;;;;;5135922;27;20015;-48
2022/09/08 10:44:41;;;;;;;6.00;1.73;;;;;;;;;;5138391;27;20028;-49
2022/09/08 10:47:18;;;;;;;6.53;1.85;;;;;;;;;;5134726;27;20152;-49
2022/09/08 10:50:07;;;;;;;4.50;1.92;;;;;;;;;;5135119;27;20420;-47
2022/09/08 10:52:52;;;;;;;3.22;1.67;;;;;;;;;;5089735;27;20466;-46
2022/09/08 10:55:29;;;;;;;4.43;2.72;;;;;;;;;;5137343;27;20099;-45
2022/09/08 10:58:09;;;;;;;6.32;1.98;;;;;;;;;;5137431;27;20023;-47
2022/09/08 11:00:42;;;;;;;6.22;2.08;;;;;;;;;;5139223;27;20024;-48
2022/09/08 11:03:27;;;;;;;5.13;2.13;;;;;;;;;;5132996;27;20046;-45
2022/09/08 11:05:57;;;;;;;4.78;2.28;;;;;;;;;;5080741;27;20057;-47
2022/09/08 11:08:41;;;;;;;6.63;2.83;;;;;;;;;;5134336;27;20419;-44
2022/09/08 11:11:25;;;;;;;6.75;1.77;;;;;;;;;;5136978;27;20074;-44
2022/09/08 11:13:59;;;;;;;5.95;2.35;;;;;;;;;;5137980;27;20011;-48
2022/09/08 11:16:44;;;;;;;5.13;2.30;;;;;;;;;;5135167;27;20007;-50
2022/09/08 11:19:28;;;;;;;7.03;1.67;;;;;;;;;;5132757;27;20027;-44
2022/09/08 11:22:02;;;;;;;3.75;2.92;;;;;;;;;;5137168;27;20019;-50
2022/09/08 11:24:36;;;;;;;1.40;0.95;;;;;;;;;;5135436;27;20026;-46
2022/09/08 11:27:28;;;;;;;6.85;1.65;;;;;;;;;;5136857;27;20022;-50
2022/09/08 11:30:05;;;;;;;6.93;2.33;;;;;;;;;;5130087;27;20034;-49
2022/09/08 11:32:36;;;;;;;7.88;2.58;;;;;;;;;;5134795;27;20031;-45
2022/09/08 11:35:07;;;;;;;4.88;2.30;;;;;;;;;;5132681;27;20410;-47
2022/09/08 11:37:36;;;;;;;2.05;1.20;;;;;;;;;;5137641;27;20069;-45
2022/09/08 11:40:13;;;;;;;1.67;1.27;;;;;;;;;;5136287;27;20073;-44
2022/09/08 11:42:59;;;;;;;4.50;1.23;;;;;;;;;;5132429;27;20212;-45
2022/09/08 11:45:29;;;;;;;8.45;1.42;;;;;;;;;;5132102;27;20043;-46
2022/09/08 11:48:13;;;;;;;5.03;1.92;;;;;;;;;;5135958;27;20054;-46
2022/09/08 11:50:49;;;;;;;9.38;2.20;;;;;;;;;;5129999;27;20975;-45
2022/09/08 11:53:23;;;;;;;5.05;2.08;;;;;;;;;;5132124;27;20099;-46
2022/09/08 11:56:11;;;;;;;3.63;1.73;;;;;;;;;;5132169;27;20138;-45
2022/09/08 11:58:55;;;;;;;2.70;1.40;;;;;;;;;;5137107;27;20095;-46
2022/09/08 12:01:29;;;;;;;1.77;1.38;;;;;;;;;;5133098;27;20015;-46
2022/09/08 12:04:13;;;;;;;12.65;1.48;;;;;;;;;;5132807;27;20049;-45
2022/09/08 12:06:54;;;;;;;1.77;1.40;;;;;;;;;;5137730;27;20247;-47
2022/09/08 12:09:42;;;;;;;3.45;1.52;;;;;;;;;;5136965;27;20058;-47
2022/09/08 12:12:11;;;;;;;1.80;1.15;;;;;;;;;;5117315;27;20068;-48
2022/09/08 12:14:39;;;;;;;7.00;1.35;;;;;;;;;;5134207;27;20065;-45
2022/09/08 12:17:17;;;;;;;4.32;1.08;;;;;;;;;;5139494;27;20482;-46
2022/09/08 12:19:42;;;;;;;2.30;1.63;;;;;;;;;;5136526;27;20043;-45
2022/09/08 12:22:07;;;;;;;2.05;1.58;;;;;;;;;;5132553;27;20118;-45
2022/09/08 12:24:45;;;;;;;5.55;1.73;;;;;;;;;;5138008;27;20037;-46
2022/09/08 12:27:20;;;;;;;2.33;1.70;;;;;;;;;;5134142;27;20029;-44
2022/09/08 12:29:48;;;;;;;1.52;1.13;;;;;;;;;;5134441;27;20019;-48
2022/09/08 12:32:19;;;;;;;1.48;0.93;;;;;;;;;;5136392;27;20451;-48
2022/09/08 12:35:00;;;;;;;3.38;1.65;;;;;;;;;;5131216;27;20038;-46
2022/09/08 12:37:44;;;;;;;5.25;2.00;;;;;;;;;;5137379;27;20015;-45
2022/09/08 12:40:21;;;;;;;4.13;1.67;;;;;;;;;;5136796;27;20520;-48
2022/09/08 12:43:02;;;;;;;5.85;1.23;;;;;;;;;;5134261;27;20023;-49
2022/09/08 12:45:27;;;;;;;;;;;;;;;;;;5131134;27;20015;-48
2022/09/08 12:48:11;;;;;;;5.90;2.88;;;;;;;;;;5135350;27;19918;-44
2022/09/08 12:50:36;;;;;;;2.10;1.30;;;;;;;;;;5133105;27;20035;-44
2022/09/08 12:53:14;;;;;;;4.57;1.73;;;;;;;;;;5132258;27;20025;-47
2022/09/08 12:55:42;;;;;;;4.82;2.72;;;;;;;;;;5130895;27;20061;-50
2022/09/08 12:58:09;;;;;;;8.13;2.38;;;;;;;;;;5129422;27;20023;-44
2022/09/08 13:00:37;;;;;;;3.67;2.00;;;;;;;;;;5128729;27;20095;-45
2022/09/08 13:03:11;;;;;;;4.07;2.05;;;;;;;;;;5136557;27;20031;-44
2022/09/08 13:05:40;;;;;;;3.55;1.45;;;;;;;;;;5137628;27;20454;-47
2022/09/08 13:08:15;;;;;;;7.47;2.47;;;;;;;;;;5129378;27;20015;-48
2022/09/08 13:10:44;;;;;;;2.42;1.70;;;;;;;;;;5130850;27;20139;-46
2022/09/08 13:13:28;;;;;;;2.78;1.13;;;;;;;;;;5134998;27;20098;-46
2022/09/08 13:16:12;;;;;;;2.75;1.85;;;;;;;;;;5128323;27;20478;-43
2022/09/08 13:18:40;;;;;;;3.17;1.35;;;;;;;;;;5133270;27;20106;-48
2022/09/08 13:21:05;;;;;;;1.80;1.40;;;;;;;;;;5134255;27;20775;-46
2022/09/08 13:23:33;;;;;;;6.20;2.78;;;;;;;;;;5139192;27;20030;-44
2022/09/08 13:26:17;;;;;;;7.22;1.52;;;;;;;;;;5130773;27;20023;-44
2022/09/08 13:28:42;;;;;;;2.53;1.73;;;;;;;;;;5128751;27;20022;-45
2022/09/08 13:31:17;;;;;;;2.10;1.55;;;;;;;;;;5134002;27;20083;-44
2022/09/08 13:33:51;;;;;;;2.67;1.58;;;;;;;;;;5136140;27;20184;-46
2022/09/08 13:36:35;;;;;;;4.38;1.45;;;;;;;;;;5131502;27;20730;-48
2022/09/08 13:39:09;;;;;;;3.47;1.27;;;;;;;;;;5131356;27;20023;-47
2022/09/08 13:41:52;;;;;;;3.72;2.35;;;;;;;;;;5127733;27;20011;-48
2022/09/08 13:44:21;;;;;;;7.07;3.28;;;;;;;;;;5113957;27;20145;-46
2022/09/08 13:46:58;;;;;;;5.35;1.30;;;;;;;;;;5130705;27;20059;-43
2022/09/08 13:49:35;;;;;;;4.07;2.35;;;;;;;;;;5128334;27;20545;-44
2022/09/08 13:52:01;;;;;;;2.95;1.75;;;;;;;;;;5134710;27;20025;-46
2022/09/08 13:54:38;;;;;;;3.53;2.53;;;;;;;;;;5133248;27;20494;-44
2022/09/08 13:57:13;;;;;;;6.85;2.15;;;;;;;;;;5130901;27;20266;-45
2022/09/08 13:59:50;;;;;;;2.72;1.48;;;;;;;;;;5135085;27;20031;-44
2022/09/08 14:02:36;;;;;;;4.82;1.67;;;;;;;;;;5134008;27;20054;-48
2022/09/08 14:05:10;;;;;;;2.88;1.77;;;;;;;;;;5129152;27;20593;-44
2022/09/08 14:07:36;;;;;;;5.18;1.92;;;;;;;;;;5132848;27;20027;-44
2022/09/08 14:10:24;;;;;;;2.50;1.42;;;;;;;;;;5133420;27;20569;-48
2022/09/08 14:13:13;;;;;;;2.33;1.40;;;;;;;;;;5113561;27;20051;-49
2022/09/08 14:15:48;;;;;;;2.65;1.02;;;;;;;;;;5126395;27;20046;-44
2022/09/08 14:18:17;;;;;;;7.68;1.60;;;;;;;;;;5135626;27;20331;-43
2022/09/08 14:20:48;;;;;;;3.40;2.00;;;;;;;;;;5135416;27;20367;-50
2022/09/08 14:23:13;;;;;;;2.72;1.35;;;;;;;;;;5137407;27;20042;-48
2022/09/08 14:25:38;;;;;;;9.40;2.72;;;;;;;;;;5139562;27;20030;-44
2022/09/08 14:28:18;;;;;;;9.43;2.40;;;;;;;;;;5138646;27;20497;-46
2022/09/08 14:31:12;;;;;;;3.53;1.98;;;;;;;;;;5134936;27;20066;-43
2022/09/08 14:33:46;;;;;;;4.78;1.88;;;;;;;;;;5118102;27;20031;-43
2022/09/08 14:36:24;;;;;;;2.15;1.40;;;;;;;;;;5139113;27;20043;-44
2022/09/08 14:39:08;;;;;;;5.20;1.20;;;;;;;;;;5135020;27;20038;-46
2022/09/08 14:41:35;;;;;;;7.72;1.70;;;;;;;;;;5133535;27;20023;-44
2022/09/08 14:44:06;;;;;;;1.77;1.48;;;;;;;;;;5133129;27;20035;-44
2022/09/08 14:46:32;;;;;;;2.50;1.73;;;;;;;;;;5135690;27;20030;-49
2022/09/08 14:49:13;;;;;;;2.47;1.50;;;;;;;;;;5131980;27;20020;-58
2022/09/08 14:51:57;;;;;;;2.08;1.05;;;;;;;;;;5129198;27;20015;-42
2022/09/08 14:54:40;;;;;;;2.53;1.63;;;;;;;;;;5131899;27;20019;-45
2022/09/08 14:57:12;;;;;;;5.00;1.98;;;;;;;;;;5133054;27;20496;-44
2022/09/08 14:59:53;;;;;;;4.63;1.77;;;;;;;;;;5130761;27;20022;-45
2022/09/08 15:02:25;;;;;;;3.20;2.05;;;;;;;;;;5138011;27;20112;-45
2022/09/08 15:04:50;;;;;;;1.75;1.27;;;;;;;;;;5133869;27;20021;-48
2022/09/08 15:07:19;;;;;;;2.28;1.05;;;;;;;;;;5133256;27;20015;-45
2022/09/08 15:09:49;;;;;;;9.02;2.38;;;;;;;;;;5135142;27;20030;-48